createdAt,value
2022-08-05T00:00:18.467Z,37.90
2022-08-05T00:02:51.329Z,38.03
2022-08-05T00:06:01.666Z,37.03
2022-08-05T00:08:33.024Z,36.61
2022-08-05T00:10:52.650Z,37.23
2022-08-05T00:13:19.791Z,37.21
2022-08-05T00:15:58.024Z,36.13
2022-08-05T00:18:25.765Z,35.99
2022-08-05T00:20:55.230Z,35.98
2022-08-05T00:23:44.651Z,35.88
2022-08-05T00:26:09.745Z,35.86
2022-08-05T00:28:36.746Z,35.95
2022-08-05T00:31:04.629Z,35.71
2022-08-05T00:34:56.202Z,36.40
2022-08-05T00:37:10.690Z,36.64
2022-08-05T00:39:13.397Z,36.92
2022-08-05T00:41:52.188Z,36.88
2022-08-05T00:44:23.343Z,36.78
2022-08-05T00:47:01.837Z,36.60
2022-08-05T00:49:32.815Z,36.87
2022-08-05T00:52:10.941Z,36.73
2022-08-05T00:54:38.609Z,37.16
2022-08-05T00:57:05.120Z,36.88
2022-08-05T00:59:42.028Z,37.38
2022-08-05T01:02:11.362Z,37.15
2022-08-05T01:04:37.835Z,37.59
2022-08-05T01:07:13.713Z,37.34
2022-08-05T01:09:40.821Z,37.11
2022-08-05T01:12:18.146Z,37.37
2022-08-05T01:14:59.364Z,38.20
2022-08-05T01:17:53.670Z,37.94
2022-08-05T01:20:39.425Z,38.19
2022-08-05T01:23:43.822Z,38.52
2022-08-05T01:26:40.312Z,38.58
2022-08-05T01:29:34.968Z,38.43
2022-08-05T01:32:06.329Z,38.54
2022-08-05T01:34:45.725Z,38.68
2022-08-05T01:37:25.260Z,38.76
2022-08-05T01:39:58.911Z,38.83
2022-08-05T01:42:29.638Z,38.92
2022-08-05T01:45:00.290Z,38.77
2022-08-05T01:47:39.537Z,38.76
2022-08-05T01:50:15.725Z,38.86
2022-08-05T01:52:49.621Z,38.31
2022-08-05T01:55:20.403Z,38.36
2022-08-05T01:58:11.343Z,37.94
2022-08-05T02:00:41.520Z,38.26
2022-08-05T02:03:24.247Z,38.04
2022-08-05T02:05:59.795Z,38.09
2022-08-05T02:08:30.759Z,38.12
2022-08-05T02:11:08.226Z,38.18
2022-08-05T02:13:53.753Z,38.39
2022-08-05T02:16:38.786Z,38.16
2022-08-05T02:19:15.964Z,38.54
2022-08-05T02:21:54.104Z,38.18
2022-08-05T02:24:27.435Z,38.28
2022-08-05T02:27:09.984Z,38.80
2022-08-05T02:29:58.921Z,39.14
2022-08-05T02:32:31.630Z,39.31
2022-08-05T02:35:13.674Z,38.60
2022-08-05T02:37:47.634Z,38.90
2022-08-05T02:40:21.300Z,39.00
2022-08-05T02:42:52.972Z,38.83
2022-08-05T02:45:24.108Z,38.78
2022-08-05T02:48:07.341Z,38.67
2022-08-05T02:50:42.107Z,38.36
2022-08-05T02:53:18.955Z,38.37
2022-08-05T02:55:52.133Z,38.33
2022-08-05T02:58:27.461Z,38.02
2022-08-05T03:00:58.625Z,38.35
2022-08-05T03:03:33.923Z,38.62
2022-08-05T03:06:55.566Z,38.43
2022-08-05T03:09:04.556Z,38.41
2022-08-05T03:11:56.372Z,38.42
2022-08-05T03:14:17.644Z,38.58
2022-08-05T03:16:44.154Z,38.77
2022-08-05T03:19:16.855Z,38.44
2022-08-05T03:21:57.060Z,39.37
2022-08-05T03:24:29.824Z,39.26
2022-08-05T03:26:56.924Z,38.88
2022-08-05T03:29:24.205Z,38.82
2022-08-05T03:32:11.177Z,39.34
2022-08-05T03:34:38.245Z,39.48
2022-08-05T03:37:06.346Z,39.32
2022-08-05T03:39:38.136Z,39.75
2022-08-05T03:42:13.703Z,39.51
2022-08-05T03:44:42.358Z,39.45
2022-08-05T03:47:08.665Z,39.54
2022-08-05T03:49:51.469Z,39.61
2022-08-05T03:52:39.331Z,39.42
2022-08-05T03:56:04.782Z,39.79
2022-08-05T03:58:12.164Z,39.35
2022-08-05T04:00:42.074Z,39.72
2022-08-05T04:03:15.021Z,39.84
2022-08-05T04:05:54.804Z,39.97
2022-08-05T04:08:35.033Z,39.72
2022-08-05T04:11:06.675Z,40.03
2022-08-05T04:13:55.237Z,40.32
2022-08-05T04:16:25.112Z,39.90
2022-08-05T04:18:57.930Z,39.96
2022-08-05T04:22:10.247Z,39.79
2022-08-05T04:24:14.232Z,39.97
2022-08-05T04:26:46.714Z,40.28
2022-08-05T04:29:13.265Z,40.85
2022-08-05T04:31:40.691Z,40.58
2022-08-05T04:34:19.047Z,41.03
2022-08-05T04:36:53.471Z,41.23
2022-08-05T04:39:20.576Z,41.16
2022-08-05T04:41:48.454Z,40.90
2022-08-05T04:44:16.145Z,40.81
2022-08-05T04:46:48.479Z,40.72
2022-08-05T04:49:15.214Z,40.72
2022-08-05T04:51:43.630Z,40.60
2022-08-05T04:54:10.174Z,40.67
2022-08-05T04:56:38.403Z,40.84
2022-08-05T04:59:21.737Z,40.91
2022-08-05T05:02:35.101Z,40.97
2022-08-05T05:04:43.758Z,41.04
2022-08-05T05:07:10.716Z,41.45
2022-08-05T05:09:37.433Z,42.01
2022-08-05T05:12:06.294Z,42.63
2022-08-05T05:14:36.246Z,42.89
2022-08-05T05:17:03.389Z,42.96
2022-08-05T05:19:36.918Z,43.16
2022-08-05T05:22:24.031Z,43.03
2022-08-05T05:24:57.572Z,43.02
2022-08-05T05:27:45.349Z,43.23
2022-08-05T05:30:31.108Z,44.06
2022-08-05T05:33:08.864Z,44.07
2022-08-05T05:35:44.452Z,44.80
2022-08-05T05:38:13.146Z,45.72
2022-08-05T05:40:48.328Z,45.93
2022-08-05T05:43:21.882Z,46.01
2022-08-05T05:46:05.137Z,45.97
2022-08-05T05:48:34.581Z,45.99
2022-08-05T05:51:14.993Z,45.94
2022-08-05T05:53:54.362Z,46.00
2022-08-05T05:56:32.862Z,45.94
2022-08-05T05:59:03.614Z,45.16
2022-08-05T06:01:37.170Z,43.92
2022-08-05T06:04:11.403Z,44.57
2022-08-05T06:06:41.978Z,44.55
2022-08-05T06:09:09.514Z,44.29
2022-08-05T06:11:48.854Z,44.85
2022-08-05T06:14:27.998Z,44.82
2022-08-05T06:16:55.246Z,44.51
2022-08-05T06:19:26.107Z,44.62
2022-08-05T06:22:01.999Z,45.60
2022-08-05T06:24:28.335Z,45.32
2022-08-05T06:26:55.481Z,45.17
2022-08-05T06:29:43.194Z,44.81
2022-08-05T06:32:25.609Z,44.70
2022-08-05T06:34:57.241Z,44.71
2022-08-05T06:37:56.894Z,44.61
2022-08-05T06:40:12.879Z,44.65
2022-08-05T06:42:40.559Z,44.35
2022-08-05T06:45:08.505Z,43.97
2022-08-05T06:48:36.901Z,43.51
2022-08-05T06:50:22.573Z,42.52
2022-08-05T06:52:58.742Z,41.95
2022-08-05T06:55:36.154Z,41.08
2022-08-05T06:58:29.049Z,41.18
2022-08-05T07:00:49.928Z,40.77
2022-08-05T07:03:17.082Z,41.05
2022-08-05T07:05:43.873Z,41.04
2022-08-05T07:08:12.651Z,40.45
2022-08-05T07:10:39.798Z,40.14
2022-08-05T07:13:58.303Z,40.09
2022-08-05T07:16:07.045Z,39.25
2022-08-05T07:18:38.449Z,39.46
2022-08-05T07:21:14.158Z,39.17
2022-08-05T07:32:11.875Z,41.48
2022-08-05T07:34:42.482Z,41.79
2022-08-05T07:37:11.749Z,41.48
2022-08-05T07:40:04.759Z,41.54
2022-08-05T07:42:33.490Z,43.00
2022-08-05T07:45:00.710Z,43.40
2022-08-05T07:47:27.133Z,44.35
2022-08-05T07:50:10.039Z,45.85
2022-08-05T07:52:43.589Z,45.87
2022-08-05T07:55:44.526Z,44.91
2022-08-05T07:58:03.090Z,45.84
2022-08-05T08:00:30.535Z,45.72
2022-08-05T08:03:15.033Z,45.41
2022-08-05T08:05:49.680Z,45.32
2022-08-05T08:08:17.041Z,45.08
2022-08-05T08:10:48.722Z,44.66
2022-08-05T08:13:15.574Z,44.06
2022-08-05T08:16:34.309Z,44.15
2022-08-05T08:18:35.060Z,44.04
2022-08-05T08:21:09.835Z,43.54
2022-08-05T08:24:01.606Z,43.72
2022-08-05T08:26:29.906Z,43.97
2022-08-05T08:29:02.086Z,42.55
2022-08-05T08:31:36.143Z,42.99
2022-08-05T08:34:02.748Z,42.20
2022-08-05T08:36:47.642Z,42.04
2022-08-05T08:39:19.498Z,41.45
2022-08-05T08:41:52.086Z,41.49
2022-08-05T08:45:16.608Z,40.82
2022-08-05T08:48:05.651Z,40.06
2022-08-05T08:50:30.651Z,39.65
2022-08-05T08:53:08.142Z,38.82
2022-08-05T08:56:04.459Z,39.24
2022-08-05T08:58:37.609Z,38.96
2022-08-05T09:01:17.255Z,38.59
2022-08-05T09:03:55.402Z,38.70
2022-08-05T09:06:29.288Z,38.51
2022-08-05T09:08:58.479Z,38.26
2022-08-05T09:11:51.202Z,38.63
2022-08-05T09:14:58.480Z,38.42
2022-08-05T09:17:00.206Z,39.18
2022-08-05T09:19:27.832Z,39.16
2022-08-05T09:22:23.171Z,38.47
2022-08-05T09:25:13.704Z,37.62
2022-08-05T09:28:03.934Z,37.17
2022-08-05T09:30:34.468Z,36.94
2022-08-05T09:33:04.803Z,36.63
2022-08-05T09:35:31.754Z,36.20
2022-08-05T09:38:12.983Z,36.52
2022-08-05T09:40:53.687Z,36.92
2022-08-05T09:43:41.958Z,36.82
2022-08-05T09:46:27.257Z,36.41
2022-08-05T09:49:06.839Z,36.21
2022-08-05T09:51:48.851Z,35.49
2022-08-05T09:54:29.553Z,35.33
2022-08-05T09:56:57.673Z,35.61
2022-08-05T09:59:27.969Z,35.24
2022-08-05T10:01:57.983Z,34.71
2022-08-05T10:04:36.020Z,34.91
2022-08-05T10:07:14.107Z,34.20
2022-08-05T10:10:14.443Z,34.56
2022-08-05T10:12:49.496Z,32.64
2022-08-05T10:15:20.419Z,33.32
2022-08-05T10:18:11.772Z,33.20
2022-08-05T10:20:48.551Z,33.70
2022-08-05T10:23:34.277Z,33.95
2022-08-05T10:26:13.958Z,33.46
2022-08-05T10:28:43.368Z,33.66
2022-08-05T10:32:48.003Z,33.26
2022-08-05T10:34:01.009Z,32.90
2022-08-05T10:36:28.386Z,32.21
2022-08-05T10:39:05.041Z,33.08
2022-08-05T10:42:00.467Z,33.71
2022-08-05T10:44:29.244Z,34.08
2022-08-05T10:46:57.506Z,34.65
2022-08-05T10:49:27.414Z,34.15
2022-08-05T10:52:00.357Z,34.51
2022-08-05T10:55:02.511Z,34.56
2022-08-05T10:57:31.876Z,34.37
2022-08-05T11:00:22.858Z,33.66
2022-08-05T11:03:24.646Z,33.17
2022-08-05T11:06:15.048Z,32.62
2022-08-05T11:09:16.834Z,32.89
2022-08-05T11:11:53.646Z,32.65
2022-08-05T11:14:57.446Z,32.33
2022-08-05T11:17:59.654Z,31.82
2022-08-05T11:20:39.148Z,29.98
2022-08-05T11:23:33.712Z,28.80
2022-08-05T11:26:16.741Z,28.49
2022-08-05T11:28:58.065Z,27.95
2022-08-05T11:31:56.713Z,27.93
2022-08-05T11:34:39.555Z,26.65
2022-08-05T11:38:26.269Z,27.26
2022-08-05T11:40:00.536Z,27.19
2022-08-05T11:42:32.653Z,26.64
2022-08-05T11:45:14.329Z,27.74
2022-08-05T11:47:54.811Z,28.18
2022-08-05T11:50:21.644Z,28.21
2022-08-05T11:52:50.241Z,28.23
2022-08-05T11:55:18.527Z,28.61
2022-08-05T11:58:10.968Z,28.15
2022-08-05T12:00:38.363Z,28.10
2022-08-05T12:03:28.797Z,27.55
2022-08-05T12:06:06.160Z,27.34
2022-08-05T12:08:48.016Z,26.79
2022-08-05T12:11:40.229Z,26.79
2022-08-05T12:14:10.346Z,26.24
2022-08-05T12:16:45.514Z,24.74
2022-08-05T12:20:27.852Z,25.09
2022-08-05T12:22:01.525Z,25.78
2022-08-05T12:24:28.032Z,25.72
2022-08-05T12:26:54.732Z,25.57
2022-08-05T12:29:24.378Z,25.47
2022-08-05T12:31:54.335Z,25.96
2022-08-05T12:34:31.020Z,25.85
2022-08-05T12:37:03.287Z,25.04
2022-08-05T12:39:34.694Z,25.59
2022-08-05T12:42:16.132Z,25.03
2022-08-05T12:44:45.240Z,24.82
2022-08-05T12:47:28.816Z,25.13
2022-08-05T12:50:05.336Z,23.83
2022-08-05T12:52:39.167Z,23.88
2022-08-05T12:55:25.885Z,24.20
2022-08-05T12:58:50.751Z,23.98
2022-08-05T13:02:04.166Z,22.78
2022-08-05T13:03:34.325Z,24.00
2022-08-05T13:06:08.149Z,23.34
2022-08-05T13:08:38.798Z,22.84
2022-08-05T13:11:07.132Z,22.56
2022-08-05T13:14:05.398Z,23.01
2022-08-05T13:16:25.259Z,23.02
2022-08-05T13:18:57.892Z,22.93
2022-08-05T13:21:27.787Z,21.88
2022-08-05T13:23:55.636Z,21.79
2022-08-05T13:26:30.240Z,20.93
2022-08-05T13:28:57.146Z,20.78
2022-08-05T13:32:02.795Z,18.94
2022-08-05T13:34:21.274Z,17.43
2022-08-05T13:36:50.015Z,16.99
2022-08-05T13:39:24.443Z,17.02
2022-08-05T13:42:02.878Z,16.54
2022-08-05T13:44:29.363Z,16.16
2022-08-05T13:47:02.391Z,16.44
2022-08-05T13:49:35.271Z,16.19
2022-08-05T13:52:19.152Z,16.05
2022-08-05T13:54:57.287Z,15.38
2022-08-05T13:57:26.018Z,15.86
2022-08-05T14:00:12.523Z,16.58
2022-08-05T14:02:39.461Z,16.86
2022-08-05T14:05:05.949Z,17.02
2022-08-05T14:08:00.725Z,16.79
2022-08-05T14:10:28.208Z,16.57
2022-08-05T14:12:55.762Z,16.71
2022-08-05T14:16:07.267Z,16.80
2022-08-05T14:18:14.924Z,15.61
2022-08-05T14:20:46.927Z,15.48
2022-08-05T14:23:14.006Z,15.04
2022-08-05T14:25:47.467Z,14.86
2022-08-05T14:28:26.413Z,15.01
2022-08-05T14:30:54.373Z,15.10
2022-08-05T14:33:22.772Z,15.56
2022-08-05T14:35:52.094Z,15.97
2022-08-05T14:38:33.274Z,17.10
2022-08-05T14:41:05.997Z,17.59
2022-08-05T14:43:58.911Z,18.32
2022-08-05T14:46:21.003Z,19.26
2022-08-05T14:48:49.333Z,20.06
2022-08-05T14:51:17.679Z,20.51
2022-08-05T14:53:45.222Z,22.25
2022-08-05T14:56:31.633Z,24.21
2022-08-05T14:58:58.008Z,25.71
2022-08-05T15:01:48.573Z,28.26
2022-08-05T15:04:11.567Z,28.96
2022-08-05T15:09:52.462Z,30.17
2022-08-05T15:36:36.482Z,30.05
2022-08-05T16:12:15.127Z,29.68
2022-08-05T16:42:13.615Z,31.46
2022-08-05T16:48:07.950Z,30.64
2022-08-05T16:50:45.803Z,31.00
2022-08-05T16:53:22.840Z,32.13
2022-08-05T16:56:01.459Z,32.13
2022-08-05T16:58:28.990Z,32.96
2022-08-05T17:00:56.801Z,33.11
2022-08-05T17:03:25.830Z,33.09
2022-08-05T17:08:36.134Z,33.32
2022-08-05T17:11:16.974Z,33.47
2022-08-05T17:13:44.654Z,34.13
2022-08-05T17:16:33.702Z,34.56
2022-08-05T17:18:58.000Z,35.45
2022-08-05T17:21:24.317Z,34.83
2022-08-05T17:24:05.965Z,34.75
2022-08-05T17:26:38.377Z,34.57
2022-08-05T17:29:04.977Z,35.14
2022-08-05T17:31:41.504Z,35.13
2022-08-05T17:34:30.156Z,35.64
2022-08-05T17:36:59.719Z,36.35
2022-08-05T17:39:33.574Z,37.66
2022-08-05T17:42:19.608Z,37.88
2022-08-05T17:44:50.507Z,37.42
2022-08-05T17:47:22.116Z,37.28
2022-08-05T17:50:00.247Z,36.61
2022-08-05T17:52:34.211Z,36.25
2022-08-05T17:55:03.081Z,36.03
2022-08-05T17:57:29.832Z,35.56
2022-08-05T18:00:05.307Z,35.60
2022-08-05T18:02:33.251Z,35.56
2022-08-05T18:05:01.194Z,35.46
2022-08-05T18:07:40.975Z,35.48
2022-08-05T18:10:10.385Z,35.34
2022-08-05T18:12:37.235Z,35.76
2022-08-05T18:15:04.123Z,35.62
2022-08-05T18:18:00.281Z,35.41
2022-08-05T18:20:18.221Z,35.86
2022-08-05T18:22:54.686Z,37.72
2022-08-05T18:25:33.106Z,38.52
2022-08-05T18:27:59.947Z,37.29
2022-08-05T18:30:31.257Z,37.33
2022-08-05T18:33:00.865Z,36.27
2022-08-05T18:36:00.723Z,36.01
2022-08-05T18:38:19.123Z,35.92
2022-08-05T18:41:54.957Z,36.86
2022-08-05T18:43:42.564Z,36.83
2022-08-05T18:46:10.183Z,36.40
2022-08-05T18:48:41.852Z,37.45
2022-08-05T18:52:04.796Z,38.57
2022-08-05T18:53:55.784Z,39.70
2022-08-05T18:56:25.337Z,40.11
2022-08-05T18:58:54.805Z,40.64
2022-08-05T19:01:47.760Z,40.30
2022-08-05T19:04:14.525Z,39.72
2022-08-05T19:06:50.695Z,40.00
2022-08-05T19:09:17.160Z,39.70
2022-08-05T19:12:01.139Z,39.40
2022-08-05T19:14:53.434Z,38.23
2022-08-05T19:17:16.790Z,38.63
2022-08-05T19:19:46.500Z,39.08
2022-08-05T19:22:17.651Z,37.98
2022-08-05T19:24:54.509Z,38.61
2022-08-05T19:27:23.939Z,38.38
2022-08-05T19:29:50.560Z,37.51
2022-08-05T19:32:17.241Z,37.44
2022-08-05T19:34:55.011Z,38.54
2022-08-05T19:37:34.870Z,38.88
2022-08-05T19:40:10.670Z,38.93
2022-08-05T19:42:37.370Z,38.21
2022-08-05T19:45:06.775Z,38.84
2022-08-05T19:47:34.921Z,39.15
2022-08-05T19:50:06.214Z,38.82
2022-08-05T19:52:34.408Z,38.34
2022-08-05T19:55:06.754Z,37.91
2022-08-05T19:57:57.239Z,37.39
2022-08-05T20:00:25.450Z,37.75
2022-08-05T20:02:52.501Z,37.32
2022-08-05T20:05:24.456Z,37.48
2022-08-05T20:07:59.030Z,36.83
2022-08-05T20:10:31.284Z,36.76
2022-08-05T20:13:01.430Z,37.36
2022-08-05T20:15:52.702Z,37.51
2022-08-05T20:18:33.606Z,37.96
2022-08-05T20:21:01.185Z,37.18
2022-08-05T20:23:40.342Z,36.69
2022-08-05T20:26:16.105Z,37.07
2022-08-05T20:28:45.076Z,38.52
2022-08-05T20:31:16.522Z,39.34
2022-08-05T20:33:49.817Z,39.86
2022-08-05T20:36:19.181Z,40.83
2022-08-05T20:38:54.487Z,40.73
2022-08-05T20:41:43.931Z,41.16
2022-08-05T20:44:18.371Z,41.38
2022-08-05T20:46:50.455Z,42.02
2022-08-05T20:49:24.079Z,43.20
2022-08-05T20:51:54.132Z,44.16
2022-08-05T20:54:24.719Z,44.34
2022-08-05T20:56:54.477Z,47.03
2022-08-05T20:59:26.434Z,48.88
2022-08-05T21:01:57.352Z,49.14
2022-08-05T21:04:28.451Z,48.97
2022-08-05T21:06:58.346Z,50.58
2022-08-05T21:12:08.184Z,49.64
2022-08-05T21:14:38.309Z,48.79
2022-08-05T21:17:06.194Z,49.56
2022-08-05T21:19:46.916Z,48.70
2022-08-05T21:22:21.751Z,48.56
2022-08-05T21:24:54.909Z,48.82
2022-08-05T21:29:57.545Z,48.73
2022-08-05T21:41:06.168Z,50.80
2022-08-05T21:43:41.755Z,50.78
2022-08-05T21:46:08.826Z,49.68
2022-08-05T21:48:38.755Z,49.54
2022-08-05T21:52:15.358Z,49.48
2022-08-05T21:56:44.532Z,50.15
2022-08-05T21:59:24.262Z,49.86
2022-08-05T22:01:54.456Z,50.43
2022-08-05T22:04:25.237Z,49.33
2022-08-05T22:07:00.095Z,49.84
2022-08-05T22:09:45.884Z,49.17
2022-08-05T22:12:17.586Z,48.92
2022-08-05T22:17:59.946Z,49.39
2022-08-05T22:20:27.371Z,49.72
2022-08-05T22:22:55.650Z,49.34
2022-08-05T22:25:31.105Z,49.30
2022-08-05T22:28:13.761Z,49.00
2022-08-05T22:30:44.031Z,49.19
2022-08-05T22:33:57.633Z,48.35
2022-08-05T22:36:14.724Z,47.85
2022-08-05T22:38:43.382Z,47.40
2022-08-05T22:43:57.918Z,46.20
2022-08-05T22:46:25.860Z,46.12
2022-08-05T22:48:53.023Z,46.06
2022-08-05T22:54:08.543Z,46.09
2022-08-05T22:56:35.250Z,45.85
2022-08-05T22:59:45.191Z,46.40
2022-08-05T23:13:07.359Z,45.97
2022-08-05T23:18:16.015Z,45.60
2022-08-05T23:20:43.435Z,45.85
2022-08-05T23:23:10.182Z,45.57
2022-08-05T23:28:29.481Z,44.18
2022-08-05T23:31:07.042Z,43.91
2022-08-05T23:34:04.760Z,44.34
2022-08-05T23:36:38.512Z,44.47
2022-08-05T23:39:09.482Z,44.73
2022-08-05T23:41:41.094Z,44.14
2022-08-05T23:44:15.560Z,44.34
2022-08-05T23:46:46.032Z,44.70
2022-08-05T23:49:16.794Z,44.03
2022-08-05T23:51:53.414Z,43.70
2022-08-05T23:54:34.173Z,44.63
2022-08-05T23:57:05.885Z,45.49
2022-08-05T23:59:37.683Z,45.46
